Archival Weather

Prince Abdulmajeed Bin Abdula

Prince Abdulmajeed Bin Abdula, Saudi Arabia (OEAO)

Report from: Monday, May 23, 2022 1:00 AM UTC
Current time: Tuesday, August 16, 2022 8:16 AM UTC

Current weather
Weather history
Weather forecast

Temperature26.0°C (78.8°F)
Dew point1.0°C (33.8°F)
Winds 2 kts (1 m/s, 2.3 mph) West (270°)
Clouds Sky clear
Altimeter29.80 in.Hg (1009 mB)
Relative humidity20 %
Density altitude1,517 ft. (462 m)
Remarks Ceiling and visibility OK
No significant changes expected in the next two hours
Flight conditions Visual Meteorological Conditions
Raw dataOEAO 230100Z 27002KT CAVOK 26/01 Q1009 NOSIG
An error has occurred. This application may no longer respond until reloaded. Reload 🗙